Time;durP1;ratioP1;P1;durP2;ratioP2;P2;SDS_P1;SDS_P2;PMS_P1;PMS_P2;Temp;Humidity;BMP_temperature;BMP_pressure;BME280_temperature;BME280_humidity;BME280_pressure;Samples;Min_cycle;Max_cycle;Signal;HPM_P1;HPM_P2
2022/03/14 00:00:35;;;;;;;;;4.50;3.00;;;;;18.68;50.06;101648.59;4896961;29;8819;-76
2022/03/14 00:03:02;;;;;;;;;2.00;1.00;;;;;18.70;50.04;101648.59;4895435;29;8843;-76
2022/03/14 00:05:31;;;;;;;;;2.00;2.00;;;;;18.70;49.89;101651.25;4896729;29;8894;-77
2022/03/14 00:07:59;;;;;;;;;2.00;2.00;;;;;18.69;49.98;101646.84;4896316;29;9708;-74
2022/03/14 00:10:24;;;;;;;;;1.50;1.50;;;;;18.53;50.00;101624.75;4895784;29;9651;-76
2022/03/14 00:12:55;;;;;;;;;1.00;1.00;;;;;18.62;49.83;101645.94;4896412;29;10273;-75
2022/03/14 00:15:21;;;;;;;;;2.50;1.50;;;;;18.63;49.97;101645.03;4896415;29;8799;-76
2022/03/14 00:17:47;;;;;;;;;2.50;1.50;;;;;18.60;49.98;101636.22;4895589;29;9482;-75
2022/03/14 00:20:13;;;;;;;;;2.00;1.50;;;;;18.56;49.83;101640.63;4895922;29;10467;-76
2022/03/14 00:22:40;;;;;;;;;0.50;0.50;;;;;18.69;49.82;101655.66;4895203;29;8845;-76
2022/03/14 00:25:11;;;;;;;;;0.75;0.75;;;;;18.64;49.81;101649.47;4895695;29;9436;-76
2022/03/14 00:27:37;;;;;;;;;1.00;1.00;;;;;18.60;49.74;101646.81;4894978;29;9620;-76
2022/03/14 00:30:10;;;;;;;;;0.00;0.00;;;;;18.58;49.98;101652.13;4895383;29;9547;-76
2022/03/14 00:32:36;;;;;;;;;0.00;0.00;;;;;18.66;50.01;101658.31;4895842;29;9733;-75
2022/03/14 00:35:03;;;;;;;;;1.50;0.75;;;;;18.66;49.94;101657.41;4895586;29;10358;-75
2022/03/14 00:37:32;;;;;;;;;3.00;2.00;;;;;18.65;49.77;101666.22;4898285;29;8855;-76
2022/03/14 00:39:57;;;;;;;;;0.25;0.00;;;;;18.67;49.77;101673.28;4895251;29;9682;-76
2022/03/14 00:42:23;;;;;;;;;1.75;1.75;;;;;18.64;49.81;101667.97;4895854;29;9585;-74
2022/03/14 00:44:50;;;;;;;;;1.25;1.25;;;;;18.67;49.84;101669.78;4895196;29;8799;-75
2022/03/14 00:47:16;;;;;;;;;1.00;1.00;;;;;18.60;50.11;101668.84;4895197;29;8847;-76
2022/03/14 00:49:43;;;;;;;;;1.00;0.00;;;;;18.64;49.81;101675.91;4895707;29;9455;-75
2022/03/14 00:52:09;;;;;;;;;1.00;0.00;;;;;18.57;49.88;101665.31;4894544;29;9383;-75
2022/03/14 00:54:35;;;;;;;;;1.00;0.00;;;;;18.60;49.90;101670.63;4895782;29;9419;-76
2022/03/14 00:57:01;;;;;;;;;0.75;0.75;;;;;18.60;49.69;101676.78;4895332;29;9556;-75
2022/03/14 00:59:27;;;;;;;;;1.00;1.00;;;;;18.66;50.04;101675.94;4895045;29;8847;-76
2022/03/14 01:01:53;;;;;;;;;1.00;1.00;;;;;18.63;49.89;101681.22;4895153;29;8838;-76
2022/03/14 01:04:19;;;;;;;;;0.75;0.75;;;;;18.64;49.91;101682.97;4894985;29;9509;-76
2022/03/14 01:06:45;;;;;;;;;1.00;1.00;;;;;18.65;49.81;101688.28;4893620;29;9584;-75
2022/03/14 01:09:11;;;;;;;;;0.50;0.50;;;;;18.60;50.03;101687.38;4894908;29;9672;-75
2022/03/14 01:11:37;;;;;;;;;0.75;0.75;;;;;18.57;49.87;101697.06;4895231;29;8859;-75
2022/03/14 01:14:04;;;;;;;;;0.50;0.00;;;;;18.62;49.88;101696.22;4894443;29;9522;-76
2022/03/14 01:16:29;;;;;;;;;1.00;1.00;;;;;18.61;49.84;101697.06;4895671;29;9460;-77
2022/03/14 01:18:55;;;;;;;;;1.00;1.00;;;;;18.60;49.71;101699.69;4894202;29;9406;-76
2022/03/14 01:21:21;;;;;;;;;2.00;2.00;;;;;18.60;49.66;101703.22;4895131;29;8889;-75
2022/03/14 01:23:46;;;;;;;;;1.00;1.00;;;;;18.61;49.76;101712.94;4895183;29;9620;-76
2022/03/14 01:26:17;;;;;;;;;0.00;0.00;;;;;18.54;49.52;101700.59;4894043;29;8831;-76
2022/03/14 01:28:43;;;;;;;;;0.00;0.00;;;;;18.61;49.60;101710.31;4894775;29;8831;-77
2022/03/14 01:31:09;;;;;;;;;0.00;0.00;;;;;18.62;49.76;101711.19;4894571;29;9573;-75
2022/03/14 01:33:34;;;;;;;;;0.75;0.75;;;;;18.49;49.79;101693.47;4894003;29;8799;-76
2022/03/14 01:36:00;;;;;;;;;0.00;0.00;;;;;18.56;49.73;101700.59;4894583;29;8819;-76
2022/03/14 01:38:28;;;;;;;;;0.75;0.75;;;;;18.61;49.98;101712.06;4897641;29;8945;-75
2022/03/14 01:40:55;;;;;;;;;0.00;0.00;;;;;18.53;49.68;101697.94;4894331;29;8917;-76
2022/03/14 01:43:24;;;;;;;;;0.00;0.00;;;;;18.59;49.90;101713.84;4894981;29;9603;-76
2022/03/14 01:45:50;;;;;;;;;1.00;1.00;;;;;18.54;49.82;101705.88;4895019;29;9561;-75
2022/03/14 01:48:15;;;;;;;;;0.50;0.25;;;;;18.60;49.64;101723.50;4893913;29;10235;-76
2022/03/14 01:50:41;;;;;;;;;2.00;0.75;;;;;18.51;49.63;101708.53;4895064;29;8833;-76
2022/03/14 01:53:18;;;;;;;;;0.00;0.00;;;;;18.57;49.87;101723.50;4894712;29;8863;-76
2022/03/14 01:55:48;;;;;;;;;1.25;1.00;;;;;18.53;49.74;101725.25;4894522;29;8988;-77
2022/03/14 01:58:15;;;;;;;;;1.00;1.00;;;;;18.60;49.76;101734.09;4894395;29;9546;-76
2022/03/14 02:00:41;;;;;;;;;0.00;0.00;;;;;18.56;50.10;101733.19;4894580;29;9582;-75
2022/03/14 02:03:07;;;;;;;;;0.50;0.50;;;;;18.56;49.78;101735.00;4893571;29;9654;-75
2022/03/14 02:05:37;;;;;;;;;0.00;0.00;;;;;18.54;49.88;101740.25;4894920;29;8819;-74
2022/03/14 02:08:04;;;;;;;;;1.00;1.00;;;;;18.60;50.16;101750.84;4893844;29;8910;-75
2022/03/14 02:10:30;;;;;;;;;1.00;1.00;;;;;18.56;50.21;101740.28;4894705;29;10346;-75
2022/03/14 02:13:02;;;;;;;;;1.50;1.50;;;;;18.56;49.87;101735.84;4894746;29;9741;-76
2022/03/14 02:15:28;;;;;;;;;0.00;0.00;;;;;18.55;50.04;101746.44;4893966;29;9516;-76
2022/03/14 02:17:53;;;;;;;;;1.00;1.00;;;;;18.57;50.18;101755.25;4894400;29;9492;-75
2022/03/14 02:20:18;;;;;;;;;0.75;0.75;;;;;18.57;49.71;101765.81;4894006;29;8822;-75
2022/03/14 02:22:44;;;;;;;;;0.25;0.25;;;;;18.55;50.16;101760.53;4893583;29;8807;-75
2022/03/14 02:25:10;;;;;;;;;1.75;1.75;;;;;18.55;49.77;101768.47;4894081;29;8823;-75
2022/03/14 02:27:39;;;;;;;;;0.00;0.00;;;;;18.56;49.92;101769.38;4894272;29;8982;-77
2022/03/14 02:30:05;;;;;;;;;0.00;0.00;;;;;18.54;49.85;101777.28;4893411;29;9579;-75
2022/03/14 02:32:31;;;;;;;;;0.00;0.00;;;;;18.57;49.80;101781.69;4894473;29;9519;-76
2022/03/14 02:34:56;;;;;;;;;0.00;0.00;;;;;18.56;50.01;101780.81;4894097;29;10500;-75
2022/03/14 02:37:21;;;;;;;;;0.00;0.00;;;;;18.54;49.93;101793.16;4896440;29;8990;-76
2022/03/14 02:39:47;;;;;;;;;0.75;0.75;;;;;18.55;49.95;101794.94;4894367;29;8842;-76
2022/03/14 02:42:13;;;;;;;;;1.00;1.00;;;;;18.54;50.10;101797.56;4893962;29;8877;-77
2022/03/14 02:44:41;;;;;;;;;0.00;0.00;;;;;18.56;49.78;101799.31;4893812;29;8810;-76
2022/03/14 02:47:10;;;;;;;;;1.00;1.00;;;;;18.54;50.02;101801.09;4894129;29;8938;-75
2022/03/14 02:49:36;;;;;;;;;0.50;0.50;;;;;18.53;49.94;101801.06;4894754;29;9550;-75
2022/03/14 02:52:02;;;;;;;;;1.00;1.00;;;;;18.51;49.89;101798.44;4896693;29;9601;-75
2022/03/14 02:54:28;;;;;;;;;0.00;0.00;;;;;18.52;50.02;101808.13;4897591;29;9543;-76
2022/03/14 02:56:53;;;;;;;;;1.00;1.00;;;;;18.52;50.08;101813.41;4897548;29;8818;-76
2022/03/14 02:59:20;;;;;;;;;0.00;0.00;;;;;18.51;50.00;101811.66;4896806;29;8829;-75
2022/03/14 03:01:45;;;;;;;;;1.00;1.00;;;;;18.51;50.09;101813.38;4897615;29;8842;-75
2022/03/14 03:04:11;;;;;;;;;0.00;0.00;;;;;18.53;49.78;101820.47;4897227;29;9359;-75
2022/03/14 03:06:36;;;;;;;;;0.00;0.00;;;;;18.47;49.96;101817.78;4897193;29;8834;-75
2022/03/14 03:09:03;;;;;;;;;0.75;0.75;;;;;18.51;50.01;101822.22;4896991;29;8913;-77
2022/03/14 03:11:29;;;;;;;;;0.00;0.00;;;;;18.53;50.24;101824.88;4896709;29;8828;-74
2022/03/14 03:13:55;;;;;;;;;0.00;0.00;;;;;18.55;49.89;101825.78;4897028;29;9543;-75
2022/03/14 03:16:21;;;;;;;;;0.00;0.00;;;;;18.52;49.90;101837.19;4897561;29;9382;-74
2022/03/14 03:18:46;;;;;;;;;0.00;0.00;;;;;18.52;49.98;101831.06;4896651;29;8846;-74
2022/03/14 03:21:12;;;;;;;;;1.00;1.00;;;;;18.48;49.80;101847.75;4896635;29;8822;-75
2022/03/14 03:23:38;;;;;;;;;0.00;0.00;;;;;18.53;50.09;101838.09;4897009;29;8930;-75
2022/03/14 03:26:04;;;;;;;;;0.00;0.00;;;;;18.50;49.89;101841.59;4896394;29;8807;-75
2022/03/14 03:28:35;;;;;;;;;1.00;1.00;;;;;18.50;50.10;101852.16;4897153;29;9573;-75
2022/03/14 03:31:03;;;;;;;;;0.00;0.00;;;;;18.51;50.25;101855.69;4896942;29;8819;-76
2022/03/14 03:33:29;;;;;;;;;1.00;0.00;;;;;18.50;49.97;101865.38;4896230;29;9420;-75
2022/03/14 03:35:54;;;;;;;;;0.25;0.00;;;;;18.52;50.08;101870.72;4896770;29;9633;-75
2022/03/14 03:38:19;;;;;;;;;2.00;2.00;;;;;18.48;49.91;101877.72;4899486;29;8855;-75
2022/03/14 03:40:45;;;;;;;;;1.00;1.00;;;;;18.49;50.05;101875.94;4896031;29;8818;-75
2022/03/14 03:43:10;;;;;;;;;1.50;1.50;;;;;18.46;50.08;101873.28;4896716;29;8807;-75
2022/03/14 03:45:35;;;;;;;;;1.00;1.00;;;;;18.48;49.82;101888.31;4897069;29;8820;-75
2022/03/14 03:48:00;;;;;;;;;0.00;0.00;;;;;18.47;50.05;101886.53;4895727;29;8829;-74
2022/03/14 03:50:26;;;;;;;;;0.33;0.33;;;;;18.49;50.09;101891.81;4897274;29;8804;-75
2022/03/14 03:52:51;;;;;;;;;2.00;0.75;;;;;18.48;49.99;101901.53;4896634;29;8818;-75
2022/03/14 03:55:16;;;;;;;;;1.00;0.00;;;;;18.51;50.03;101908.59;4895618;29;8843;-75
2022/03/14 03:57:42;;;;;;;;;1.00;1.00;;;;;18.50;50.26;101912.09;4896158;29;8862;-74
2022/03/14 04:00:09;;;;;;;;;1.00;1.00;;;;;18.47;49.98;101923.56;4895924;29;9591;-76
2022/03/14 04:02:38;;;;;;;;;0.67;0.67;;;;;18.49;49.97;101916.50;4895662;29;8831;-75
2022/03/14 04:05:04;;;;;;;;;2.00;2.00;;;;;18.48;49.83;101927.09;4896254;29;9286;-75
2022/03/14 04:07:31;;;;;;;;;0.00;0.00;;;;;18.50;49.89;101931.50;4896361;29;9474;-76
2022/03/14 04:09:57;;;;;;;;;1.00;1.00;;;;;18.47;49.89;101926.19;4895526;29;11679;-76
2022/03/14 04:12:24;;;;;;;;;1.00;1.00;;;;;18.48;50.39;101940.31;4896292;29;10288;-75
2022/03/14 04:14:51;;;;;;;;;0.75;0.75;;;;;18.44;50.14;101947.34;4895695;29;9828;-74
2022/03/14 04:17:16;;;;;;;;;1.00;1.00;;;;;18.45;50.01;101953.47;4895867;29;9705;-75
2022/03/14 04:19:43;;;;;;;;;1.00;1.00;;;;;18.46;50.28;101955.25;4896079;29;9526;-76
2022/03/14 04:22:09;;;;;;;;;1.50;1.50;;;;;18.45;50.06;101967.59;4895025;29;8801;-74
2022/03/14 04:24:35;;;;;;;;;0.50;0.50;;;;;18.44;49.99;101965.84;4895988;29;9507;-74
2022/03/14 04:27:01;;;;;;;;;1.50;1.00;;;;;18.42;49.95;101970.22;4895965;29;10163;-74
2022/03/14 04:29:27;;;;;;;;;0.75;0.75;;;;;18.42;49.95;101975.50;4895524;29;11567;-75
2022/03/14 04:31:53;;;;;;;;;1.75;1.75;;;;;18.45;49.94;101975.53;4896727;29;8807;-75
2022/03/14 04:34:18;;;;;;;;;1.75;1.75;;;;;18.40;50.30;101977.28;4896580;29;9487;-76
2022/03/14 04:36:44;;;;;;;;;1.00;1.00;;;;;18.38;50.24;101973.72;4909081;29;8898;-76
2022/03/14 04:39:09;;;;;;;;;1.00;1.00;;;;;18.40;49.94;101985.22;4922208;29;8813;-74
2022/03/14 04:41:37;;;;;;;;;1.25;1.25;;;;;18.43;50.17;101994.91;4917049;29;8844;-75
2022/03/14 04:44:02;;;;;;;;;0.00;0.00;;;;;18.42;50.28;101998.41;4914362;29;8966;-75
2022/03/14 04:46:28;;;;;;;;;0.00;0.00;;;;;18.41;50.17;102009.91;4914984;29;9582;-76
2022/03/14 04:48:53;;;;;;;;;0.50;0.50;;;;;18.41;50.17;102016.03;4915934;29;8820;-75
2022/03/14 04:51:18;;;;;;;;;0.75;0.75;;;;;18.41;50.02;102023.97;4921414;29;8839;-75
2022/03/14 04:53:43;;;;;;;;;0.50;0.50;;;;;18.39;50.18;102032.78;4922549;29;8804;-75
2022/03/14 04:56:09;;;;;;;;;0.75;0.75;;;;;18.40;50.14;102034.56;4918747;29;8808;-75
2022/03/14 04:58:34;;;;;;;;;1.00;1.00;;;;;18.39;50.47;102040.72;4915939;29;9594;-77
2022/03/14 05:01:00;;;;;;;;;2.00;2.00;;;;;18.43;50.09;102038.09;4914474;29;8836;-76
2022/03/14 05:03:25;;;;;;;;;0.25;0.25;;;;;18.40;50.25;102043.38;4914806;29;8812;-75
2022/03/14 05:05:50;;;;;;;;;0.00;0.00;;;;;18.40;50.23;102056.59;4914013;29;8792;-75
2022/03/14 05:08:15;;;;;;;;;1.00;1.00;;;;;18.41;50.46;102055.69;4914151;29;8812;-76
2022/03/14 05:10:42;;;;;;;;;0.75;0.75;;;;;18.39;50.16;102073.31;4914569;29;8814;-74
2022/03/14 05:13:11;;;;;;;;;0.75;0.75;;;;;18.39;50.11;102077.72;4913044;29;8827;-76
2022/03/14 05:15:37;;;;;;;;;1.00;1.00;;;;;18.40;50.53;102082.16;4914307;29;9502;-75
2022/03/14 05:18:02;;;;;;;;;0.67;0.67;;;;;18.39;50.11;102083.91;4913457;29;9561;-76
2022/03/14 05:20:28;;;;;;;;;0.75;0.75;;;;;18.38;50.12;102084.78;4914420;29;9220;-76
2022/03/14 05:22:53;;;;;;;;;1.00;1.00;;;;;18.40;50.64;102082.16;4914207;29;8788;-76
2022/03/14 05:25:20;;;;;;;;;1.00;1.00;;;;;18.39;50.43;102088.31;4913541;29;8797;-75
2022/03/14 05:27:46;;;;;;;;;0.00;0.00;;;;;18.39;50.88;102093.59;4914247;29;8840;-73
2022/03/14 05:30:12;;;;;;;;;0.00;0.00;;;;;18.41;51.02;102091.88;4913792;29;9474;-74
2022/03/14 05:32:40;;;;;;;;;0.00;0.00;;;;;18.40;50.60;102103.31;4913307;29;11555;-74
2022/03/14 05:35:07;;;;;;;;;0.33;0.33;;;;;18.37;50.82;102098.84;4913842;29;9370;-74
2022/03/14 05:37:32;;;;;;;;;0.00;0.00;;;;;18.39;50.93;102098.88;4910877;29;9258;-75
2022/03/14 05:39:57;;;;;;;;;1.50;1.00;;;;;18.39;51.01;102098.88;4913307;29;9431;-76
2022/03/14 05:42:23;;;;;;;;;0.00;0.00;;;;;18.37;50.94;102103.28;4914374;29;8819;-74
2022/03/14 05:44:52;;;;;;;;;1.00;1.00;;;;;18.37;50.93;102098.84;4914319;29;8785;-75
2022/03/14 05:47:18;;;;;;;;;0.50;0.00;;;;;18.38;51.22;102108.56;4913251;29;8843;-75
2022/03/14 05:49:44;;;;;;;;;2.50;2.00;;;;;18.37;51.00;102114.72;4913919;29;9462;-75
2022/03/14 05:52:09;;;;;;;;;0.00;0.00;;;;;18.35;50.74;102125.31;4911467;29;9645;-75
2022/03/14 05:54:41;;;;;;;;;1.00;1.00;;;;;18.35;50.97;102127.94;4912196;29;8805;-77
2022/03/14 05:57:06;;;;;;;;;0.67;0.67;;;;;18.34;51.08;102133.22;4913166;29;8848;-75
2022/03/14 05:59:31;;;;;;;;;1.00;0.00;;;;;18.36;51.16;102134.13;4913659;29;9320;-75
2022/03/14 06:01:57;;;;;;;;;1.00;1.00;;;;;18.37;51.29;102132.38;4912474;29;8990;-76
2022/03/14 06:04:23;;;;;;;;;1.00;1.00;;;;;18.34;51.12;102136.75;4913299;29;8836;-75
2022/03/14 06:06:48;;;;;;;;;1.00;1.00;;;;;18.31;51.18;102139.34;4913391;29;8809;-76
2022/03/14 06:09:13;;;;;;;;;0.00;0.00;;;;;18.38;50.91;102145.59;4912481;29;11579;-75
2022/03/14 06:11:40;;;;;;;;;1.00;1.00;;;;;18.35;51.18;102148.22;4913650;29;8800;-76
2022/03/14 06:14:06;;;;;;;;;0.25;0.25;;;;;18.32;50.86;102158.75;4912784;29;8816;-75
2022/03/14 06:16:32;;;;;;;;;1.00;1.00;;;;;18.35;51.33;102167.59;4912779;29;9553;-75
2022/03/14 06:18:57;;;;;;;;;1.00;0.00;;;;;18.35;50.86;102175.53;4912937;29;9503;-76
2022/03/14 06:21:22;;;;;;;;;1.00;1.00;;;;;18.38;51.48;102176.44;4912528;29;8820;-75
2022/03/14 06:23:51;;;;;;;;;2.00;2.00;;;;;18.34;51.35;102184.34;4913365;29;8926;-81
2022/03/14 06:26:17;;;;;;;;;0.00;0.00;;;;;18.34;50.89;102176.41;4916593;29;8812;-75
2022/03/14 06:28:43;;;;;;;;;1.00;1.00;;;;;18.35;51.05;102190.50;4916159;29;9545;-75
2022/03/14 06:31:11;;;;;;;;;1.00;1.00;;;;;18.35;51.04;102193.16;4916541;29;8840;-75
2022/03/14 06:33:39;;;;;;;;;1.00;1.00;;;;;18.35;51.26;102198.44;4917034;29;8800;-75
2022/03/14 06:36:05;;;;;;;;;0.00;0.00;;;;;18.32;51.13;102201.94;4915260;29;9594;-76
2022/03/14 06:38:32;;;;;;;;;1.00;1.00;;;;;18.32;50.96;102206.34;4914109;29;9469;-76
2022/03/14 06:40:57;;;;;;;;;1.00;1.00;;;;;18.37;51.21;102207.25;4916954;29;9592;-76
2022/03/14 06:43:24;;;;;;;;;2.25;1.25;;;;;18.37;50.87;102204.63;4916183;29;9669;-76
2022/03/14 06:45:50;;;;;;;;;1.00;1.00;;;;;18.37;51.01;102209.91;4916742;29;8815;-74
2022/03/14 06:48:15;;;;;;;;;1.00;1.00;;;;;18.35;50.92;102209.03;4916896;29;9725;-75
2022/03/14 06:50:44;;;;;;;;;1.00;1.00;;;;;18.33;51.29;102213.41;4916261;29;8804;-76
2022/03/14 06:53:12;;;;;;;;;0.00;0.00;;;;;18.30;51.15;102221.28;4916770;29;8810;-76
2022/03/14 06:55:37;;;;;;;;;1.00;1.00;;;;;18.34;51.04;102224.00;4917030;29;9447;-76
2022/03/14 06:58:03;;;;;;;;;0.50;0.50;;;;;18.38;50.89;102229.31;4915890;29;9580;-76
2022/03/14 07:00:29;;;;;;;;;0.25;0.25;;;;;18.35;51.04;102232.81;4917013;29;8810;-76
2022/03/14 07:02:55;;;;;;;;;0.00;0.00;;;;;18.36;50.80;102234.59;4916523;29;8866;-75
2022/03/14 07:05:23;;;;;;;;;0.75;0.75;;;;;18.33;51.04;102248.66;4916496;29;8799;-75
2022/03/14 07:07:49;;;;;;;;;0.25;0.25;;;;;18.31;51.24;102249.50;4917069;29;10362;-75
2022/03/14 07:10:16;;;;;;;;;0.00;0.00;;;;;18.34;51.10;102238.97;4916407;29;9522;-75
2022/03/14 07:12:46;;;;;;;;;0.00;0.00;;;;;18.33;51.23;102245.16;4916211;29;10361;-74
2022/03/14 07:15:14;;;;;;;;;0.25;0.25;;;;;18.31;51.16;102245.13;4916448;29;9565;-76
2022/03/14 07:17:42;;;;;;;;;2.00;2.00;;;;;18.32;51.13;102253.94;4915884;29;9558;-74
2022/03/14 07:20:09;;;;;;;;;0.00;0.00;;;;;18.31;50.89;102255.69;4916551;29;9462;-75
2022/03/14 07:22:36;;;;;;;;;0.00;0.00;;;;;18.38;51.37;102261.03;4916709;29;9581;-76
2022/03/14 07:25:03;;;;;;;;;0.75;0.75;;;;;18.32;51.00;102262.75;4915719;29;9435;-75
2022/03/14 07:27:28;;;;;;;;;0.50;0.50;;;;;18.33;51.05;102263.66;4916545;29;9446;-76
2022/03/14 07:29:57;;;;;;;;;1.50;1.50;;;;;18.31;51.17;102257.44;4915835;29;9427;-75
2022/03/14 07:32:22;;;;;;;;;1.00;1.00;;;;;18.35;51.25;102269.84;4915479;29;8813;-75
2022/03/14 07:34:47;;;;;;;;;1.00;1.00;;;;;18.35;51.38;102278.66;4915818;29;9622;-76
2022/03/14 07:37:15;;;;;;;;;1.00;1.00;;;;;18.34;51.02;102274.22;4912199;29;8855;-75
2022/03/14 07:39:40;;;;;;;;;1.00;1.00;;;;;18.34;51.07;102276.88;4915170;29;8800;-76
2022/03/14 07:42:07;;;;;;;;;0.25;0.25;;;;;18.35;51.52;102275.13;4915505;29;9575;-75
2022/03/14 07:44:32;;;;;;;;;1.00;1.00;;;;;18.35;51.32;102277.78;4916199;29;9670;-74
2022/03/14 07:46:57;;;;;;;;;1.00;1.00;;;;;18.37;51.31;102286.59;4918209;29;9538;-75
2022/03/14 07:49:23;;;;;;;;;0.50;0.50;;;;;18.32;51.25;102286.56;4927542;29;9592;-74
2022/03/14 07:51:48;;;;;;;;;1.00;1.00;;;;;18.35;51.16;102286.59;4921125;29;8871;-75
2022/03/14 07:54:14;;;;;;;;;3.25;3.00;;;;;18.31;51.27;102278.59;4916099;29;8804;-76
2022/03/14 07:56:42;;;;;;;;;0.50;0.25;;;;;18.32;51.39;102291.84;4916394;29;8833;-76
2022/03/14 07:59:07;;;;;;;;;1.00;1.00;;;;;18.34;51.32;102299.78;4920505;29;8927;-76
2022/03/14 08:01:33;;;;;;;;;1.00;1.00;;;;;18.32;51.46;102307.72;4924060;29;10417;-75
2022/03/14 08:04:01;;;;;;;;;1.00;1.00;;;;;18.39;51.56;102307.78;4921282;29;8792;-77
2022/03/14 08:06:26;;;;;;;;;0.75;0.75;;;;;18.38;51.62;102306.00;4918850;29;8808;-75
2022/03/14 08:08:55;;;;;;;;;0.50;0.50;;;;;18.34;51.45;102320.94;4916165;29;9616;-77
2022/03/14 08:11:22;;;;;;;;;1.00;0.75;;;;;18.33;51.59;102333.25;4915823;29;8817;-76
2022/03/14 08:13:48;;;;;;;;;1.00;1.00;;;;;18.33;51.46;102332.41;4914686;29;10300;-76
2022/03/14 08:16:13;;;;;;;;;0.00;0.00;;;;;18.33;51.57;102337.69;4915604;29;9550;-76
2022/03/14 08:18:39;;;;;;;;;1.25;1.25;;;;;18.34;51.86;102344.72;4915433;29;8839;-77
2022/03/14 08:21:04;;;;;;;;;2.00;2.00;;;;;18.33;51.82;102353.56;4914931;29;8804;-75
2022/03/14 08:23:30;;;;;;;;;2.75;2.75;;;;;18.33;51.81;102354.41;4915477;29;9551;-75
2022/03/14 08:25:56;;;;;;;;;1.50;1.50;;;;;18.33;51.36;102353.56;4915299;29;8875;-75
2022/03/14 08:28:21;;;;;;;;;1.00;1.00;;;;;18.32;51.87;102359.72;4914715;29;9527;-75
2022/03/14 08:30:48;;;;;;;;;2.00;2.00;;;;;18.32;51.78;102357.06;4915627;29;8836;-75
2022/03/14 08:33:14;;;;;;;;;2.33;2.33;;;;;18.31;51.59;102361.47;4914884;29;8788;-74
2022/03/14 08:35:39;;;;;;;;;2.00;2.00;;;;;18.35;51.57;102370.31;4914681;29;9439;-75
2022/03/14 08:38:07;;;;;;;;;3.00;3.00;;;;;18.33;51.67;102370.28;4911631;29;8856;-75
2022/03/14 08:40:33;;;;;;;;;2.00;2.00;;;;;18.37;51.38;102373.00;4915318;29;8828;-74
2022/03/14 08:42:58;;;;;;;;;4.00;4.00;;;;;18.35;51.71;102379.16;4914182;29;9534;-75
2022/03/14 08:45:25;;;;;;;;;4.00;4.00;;;;;18.34;51.72;102387.03;4915257;29;8796;-75
2022/03/14 08:47:51;;;;;;;;;4.75;4.25;;;;;18.31;51.67;102392.28;4914244;29;9024;-75
2022/03/14 08:50:17;;;;;;;;;2.00;2.00;;;;;18.31;51.48;102389.66;4914105;29;9752;-74
2022/03/14 08:52:45;;;;;;;;;3.50;3.50;;;;;18.31;51.76;102387.00;4914637;29;11591;-74
2022/03/14 08:55:11;;;;;;;;;4.00;4.00;;;;;18.32;51.46;102409.94;4914664;29;8804;-76
2022/03/14 08:57:37;;;;;;;;;0.00;0.00;;;;;18.32;51.55;102408.19;4913882;29;9706;-75
2022/03/14 09:00:04;;;;;;;;;6.50;6.00;;;;;18.32;51.46;102404.66;4914672;29;9643;-75
2022/03/14 09:02:29;;;;;;;;;4.75;4.00;;;;;18.31;51.41;102406.41;4914486;29;8829;-75
2022/03/14 09:04:54;;;;;;;;;8.75;5.00;;;;;18.34;51.88;102416.13;4913887;29;9691;-76
2022/03/14 09:07:30;;;;;;;;;4.25;3.75;;;;;18.37;51.78;102418.81;4914477;29;8796;-76
2022/03/14 09:10:12;;;;;;;;;5.00;4.00;;;;;18.47;51.15;102420.75;4914051;29;8805;-76
2022/03/14 09:12:42;;;;;;;;;5.50;4.00;;;;;18.46;51.35;102420.72;4914653;29;9735;-76
2022/03/14 09:15:08;;;;;;;;;7.50;6.00;;;;;18.45;51.22;102429.50;4914166;29;9688;-76
2022/03/14 09:17:35;;;;;;;;;4.25;4.25;;;;;18.42;51.52;102427.72;4913161;29;9805;-76
2022/03/14 09:20:05;;;;;;;;;7.00;5.75;;;;;18.41;51.17;102425.06;4913925;29;9916;-77
2022/03/14 09:22:31;;;;;;;;;6.00;6.00;;;;;18.35;51.46;102421.47;4913915;29;9848;-76
2022/03/14 09:24:57;;;;;;;;;6.00;6.00;;;;;18.41;51.38;102438.28;4913186;29;9746;-75
2022/03/14 09:27:23;;;;;;;;;5.00;5.00;;;;;18.43;51.17;102434.78;4914174;29;8816;-76
2022/03/14 09:29:55;;;;;;;;;5.50;5.50;;;;;18.38;51.47;102438.22;4914168;29;9865;-76
2022/03/14 09:32:20;;;;;;;;;7.75;6.00;;;;;18.39;51.29;102438.25;4913689;29;11545;-76
2022/03/14 09:34:45;;;;;;;;;7.50;7.50;;;;;18.42;50.93;102450.63;4914098;29;9982;-76
2022/03/14 09:37:11;;;;;;;;;9.00;7.50;;;;;18.41;51.03;102449.72;4910457;29;8833;-75
2022/03/14 09:39:36;;;;;;;;;9.00;6.00;;;;;18.47;51.69;102455.13;4916861;29;8792;-87
2022/03/14 09:42:02;;;;;;;;;9.00;9.00;;;;;18.52;53.04;102455.25;4917174;29;8966;-82
2022/03/14 09:44:29;;;;;;;;;8.00;8.00;;;;;18.59;53.16;102460.63;4917371;29;8847;-78
2022/03/14 09:47:00;;;;;;;;;11.00;11.00;;;;;18.72;52.99;102464.34;4916093;29;9832;-80
2022/03/14 09:49:27;;;;;;;;;10.00;7.25;;;;;18.83;55.58;102460.06;4916595;29;10166;-80
2022/03/14 09:51:53;;;;;;;;;8.50;7.50;;;;;18.93;56.63;102469.94;4916846;29;9840;-79
2022/03/14 09:54:21;;;;;;;;;9.00;9.00;;;;;18.92;59.45;102481.38;4916759;29;9922;-78
2022/03/14 09:56:48;;;;;;;;;10.50;9.50;;;;;19.04;59.68;102491.25;4915928;29;9914;-79
2022/03/14 09:59:13;;;;;;;;;12.25;11.25;;;;;18.97;59.77;102486.75;4914031;29;10160;-79
2022/03/14 10:01:39;;;;;;;;;14.50;13.00;;;;;18.93;59.23;102490.22;4916538;29;10216;-79
2022/03/14 10:04:05;;;;;;;;;10.50;10.50;;;;;18.90;58.21;102485.75;4913416;29;9571;-80
2022/03/14 10:06:31;;;;;;;;;17.75;16.50;;;;;18.90;57.50;102491.03;4912965;29;10249;-80
2022/03/14 10:08:56;;;;;;;;;16.50;14.50;;;;;18.91;57.92;102484.88;4913834;29;8843;-80
2022/03/14 10:11:21;;;;;;;;;14.25;14.25;;;;;18.90;56.80;102491.03;4914185;29;8826;-80
2022/03/14 10:13:47;;;;;;;;;19.50;18.00;;;;;18.93;56.27;102492.88;4914240;29;8823;-79
2022/03/14 10:16:12;;;;;;;;;18.50;17.00;;;;;18.93;55.00;102509.63;4914612;29;8780;-80
2022/03/14 10:18:58;;;;;;;;;14.75;13.00;;;;;18.94;55.00;102510.50;4909279;29;8855;-80
2022/03/14 10:21:34;;;;;;;;;16.50;13.50;;;;;18.87;54.48;102509.53;4893792;29;8918;-82
2022/03/14 10:24:07;;;;;;;;;17.00;16.00;;;;;18.90;53.03;102506.91;4895075;29;10167;-81
2022/03/14 10:26:34;;;;;;;;;18.00;17.25;;;;;18.90;53.35;102506.03;4894236;29;10237;-82
2022/03/14 10:29:02;;;;;;;;;20.75;19.00;;;;;18.90;53.04;102517.50;4893262;29;10039;-80
2022/03/14 10:31:34;;;;;;;;;19.25;19.25;;;;;18.90;52.52;102521.91;4903906;29;10137;-82
2022/03/14 10:34:05;;;;;;;;;15.00;14.00;;;;;18.91;52.98;102521.06;4913397;29;10126;-79
2022/03/14 10:36:47;;;;;;;;;14.00;12.75;;;;;18.91;52.75;102536.94;4911522;29;9892;-81
2022/03/14 10:39:25;;;;;;;;;18.50;18.25;;;;;18.93;52.05;102522.88;4894969;29;10100;-81
2022/03/14 10:42:05;;;;;;;;;15.50;14.75;;;;;18.92;52.40;102526.38;4893604;29;10265;-81
2022/03/14 10:44:33;;;;;;;;;16.75;15.75;;;;;18.94;51.46;102521.09;4892686;29;10100;-74
2022/03/14 10:47:00;;;;;;;;;19.25;18.25;;;;;18.83;52.36;102534.16;4892704;29;10177;-81
2022/03/14 10:49:30;;;;;;;;;17.75;17.75;;;;;18.82;52.37;102533.28;4891705;29;10382;-82
2022/03/14 10:52:04;;;;;;;;;18.25;16.25;;;;;18.83;52.14;102535.06;4894284;29;10322;-81
2022/03/14 10:54:30;;;;;;;;;14.75;14.00;;;;;18.81;52.48;102534.16;4900396;29;10198;-82
2022/03/14 10:57:10;;;;;;;;;13.50;12.25;;;;;18.83;52.36;102539.47;4906802;29;10200;-82
2022/03/14 10:59:43;;;;;;;;;19.75;17.50;;;;;18.83;52.07;102539.47;4913074;29;10297;-82
2022/03/14 11:02:11;;;;;;;;;21.25;19.00;;;;;18.82;51.94;102545.63;4906833;29;10307;-82
2022/03/14 11:04:53;;;;;;;;;16.25;16.25;;;;;18.80;51.64;102548.25;4914720;29;10288;-82
2022/03/14 11:07:23;;;;;;;;;17.00;13.75;;;;;18.73;51.91;102549.03;4914866;29;10177;-81
2022/03/14 11:09:51;;;;;;;;;14.75;14.75;;;;;18.72;51.61;102556.94;4906452;29;10217;-82
2022/03/14 11:12:18;;;;;;;;;14.25;13.50;;;;;18.76;51.47;102569.34;4900223;29;10146;-81
2022/03/14 11:14:54;;;;;;;;;18.25;16.00;;;;;18.74;51.59;102560.50;4908190;29;9936;-82
2022/03/14 11:17:21;;;;;;;;;14.25;13.75;;;;;18.75;51.64;102560.53;4903269;29;10209;-82
2022/03/14 11:19:47;;;;;;;;;13.75;12.75;;;;;18.76;51.65;102551.72;4908168;29;10240;-83
2022/03/14 11:22:14;;;;;;;;;13.50;11.75;;;;;18.78;51.45;102557.06;4917632;29;10069;-82
2022/03/14 11:24:51;;;;;;;;;12.00;11.75;;;;;18.79;51.41;102565.00;4914288;29;10099;-82
2022/03/14 11:27:31;;;;;;;;;13.50;12.50;;;;;18.79;51.43;102564.09;4916357;29;10099;-81